Time;durP1;ratioP1;P1;durP2;ratioP2;P2;SDS_P1;SDS_P2;PMS_P1;PMS_P2;Temp;Humidity;BMP_temperature;BMP_pressure;BME280_temperature;BME280_humidity;BME280_pressure;Samples;Min_cycle;Max_cycle;Signal;HPM_P1;HPM_P2
2022/01/13 00:00:16;;;;;;;128.07;44.20;;;;;;;1.94;57.48;97425.13;4991007;28;20101;-66
2022/01/13 00:02:42;;;;;;;125.35;46.40;;;;;;;1.62;59.25;97437.03;4992000;28;20133;-66
2022/01/13 00:05:08;;;;;;;125.35;46.55;;;;;;;2.02;57.59;97385.63;4991887;28;20038;-64
2022/01/13 00:07:35;;;;;;;116.80;45.08;;;;;;;2.12;57.91;97407.06;4990498;28;20037;-65
2022/01/13 00:10:01;;;;;;;126.95;46.00;;;;;;;2.48;56.30;97398.94;4991314;28;20488;-68
2022/01/13 00:12:32;;;;;;;120.50;46.55;;;;;;;2.23;56.31;97385.50;4991190;28;20030;-65
2022/01/13 00:15:21;;;;;;;108.25;42.58;;;;;;;2.34;56.23;97381.50;4990557;28;20022;-65
2022/01/13 00:18:01;;;;;;;108.45;43.80;;;;;;;2.13;56.83;97384.25;4991540;28;20029;-64
2022/01/13 00:20:34;;;;;;;114.95;45.05;;;;;;;2.51;55.91;97400.38;4990826;28;20145;-65
2022/01/13 00:25:44;;;;;;;116.38;46.20;;;;;;;2.96;54.64;97393.59;4990985;28;20037;-64
2022/01/13 00:28:17;;;;;;;113.50;45.72;;;;;;;3.39;54.25;97398.50;4991815;28;20392;-65
2022/01/13 00:30:43;;;;;;;110.53;44.25;;;;;;;3.30;54.21;97408.41;4990453;28;20026;-65
2022/01/13 00:33:11;;;;;;;103.72;43.58;;;;;;;3.65;53.53;97408.19;4991257;28;20072;-65
2022/01/13 00:35:37;;;;;;;104.22;44.72;;;;;;;4.04;53.13;97420.47;4991038;28;20033;-65
2022/01/13 00:38:03;;;;;;;102.13;43.67;;;;;;;4.19;52.87;97409.69;4991032;28;20022;-65
2022/01/13 00:40:28;;;;;;;108.63;45.33;;;;;;;4.36;51.76;97384.50;4990325;28;20060;-65
2022/01/13 00:42:53;;;;;;;96.90;43.38;;;;;;;4.51;51.47;97392.16;4990611;28;20028;-65
2022/01/13 00:45:19;;;;;;;99.22;44.60;;;;;;;4.48;51.14;97397.03;4990516;28;20076;-65
2022/01/13 00:47:45;;;;;;;92.22;43.13;;;;;;;4.90;50.04;97443.06;4990767;28;20040;-65
2022/01/13 00:50:11;;;;;;;94.22;42.88;;;;;;;4.68;49.40;97405.66;4990368;28;20022;-65
2022/01/13 00:52:36;;;;;;;91.97;42.17;;;;;;;4.61;50.47;97403.06;4991024;28;20494;-65
2022/01/13 00:55:06;;;;;;;102.32;44.25;;;;;;;4.82;49.90;97387.94;4991525;28;20030;-65
2022/01/13 00:57:32;;;;;;;94.20;42.22;;;;;;;5.03;49.72;97387.59;4990719;28;20499;-65
2022/01/13 00:59:59;;;;;;;93.93;42.72;;;;;;;5.44;48.95;97444.34;4990023;28;20034;-65
2022/01/13 01:02:25;;;;;;;93.15;42.35;;;;;;;5.28;48.82;97378.91;4990604;28;20105;-65
2022/01/13 01:04:50;;;;;;;101.57;44.95;;;;;;;5.56;48.78;97423.34;4989259;28;20026;-66
2022/01/13 01:07:15;;;;;;;98.88;44.60;;;;;;;5.54;48.68;97417.47;4990611;28;20096;-65
2022/01/13 01:09:48;;;;;;;98.47;43.47;;;;;;;5.73;48.98;97433.16;4989886;28;20026;-65
2022/01/13 01:12:14;;;;;;;92.22;42.95;;;;;;;5.86;48.24;97415.56;4990205;28;20130;-65
2022/01/13 01:14:46;;;;;;;92.38;42.50;;;;;;;5.80;48.43;97385.53;4990352;28;20061;-66
2022/01/13 01:17:15;;;;;;;83.75;40.22;;;;;;;5.94;48.02;97396.81;4983342;28;20718;-66
2022/01/13 01:19:43;;;;;;;94.82;42.05;;;;;;;5.92;47.60;97389.09;4989593;28;20499;-66
2022/01/13 01:25:01;;;;;;;89.05;42.08;;;;;;;6.10;47.90;97430.59;4990339;28;20035;-68
2022/01/13 01:27:40;;;;;;;91.03;42.13;;;;;;;6.05;47.83;97432.28;4989726;28;20046;-65
2022/01/13 01:30:14;;;;;;;90.47;41.78;;;;;;;5.88;47.53;97410.84;4989453;28;20646;-65
2022/01/13 01:32:40;;;;;;;90.72;41.85;;;;;;;5.77;47.99;97372.75;4990201;28;20065;-65
2022/01/13 01:35:13;;;;;;;87.70;42.00;;;;;;;6.17;47.65;97426.03;4990023;28;20530;-65
2022/01/13 01:37:40;;;;;;;87.43;40.95;;;;;;;6.06;47.25;97434.69;4990602;28;20365;-65
2022/01/13 01:40:07;;;;;;;87.43;42.03;;;;;;;6.03;47.30;97413.97;4989177;28;20030;-65
2022/01/13 01:42:32;;;;;;;84.03;41.40;;;;;;;6.10;47.22;97421.84;4989438;28;20080;-66
2022/01/13 01:44:59;;;;;;;85.13;41.90;;;;;;;6.19;46.83;97433.72;4990094;28;20460;-65
2022/01/13 01:47:28;;;;;;;94.15;42.28;;;;;;;6.11;47.24;97415.53;4988625;28;20038;-65
2022/01/13 01:49:58;;;;;;;87.50;40.83;;;;;;;6.11;46.76;97408.41;4989356;28;20023;-65
2022/01/13 01:52:24;;;;;;;85.70;40.03;;;;;;;6.16;46.66;97408.56;4988766;28;20035;-65
2022/01/13 01:54:49;;;;;;;86.03;41.80;;;;;;;6.20;47.21;97388.59;4988581;28;20022;-66
2022/01/13 01:57:17;;;;;;;87.85;42.38;;;;;;;6.06;46.64;97362.56;4989428;28;20678;-66
2022/01/13 01:59:44;;;;;;;90.70;42.10;;;;;;;6.47;46.98;97428.75;4989372;28;20058;-65
2022/01/13 02:02:15;;;;;;;91.60;43.00;;;;;;;6.29;46.74;97417.38;4988537;28;20022;-66
2022/01/13 02:04:41;;;;;;;86.43;40.50;;;;;;;6.24;46.48;97403.00;4989925;28;20096;-65
2022/01/13 02:07:07;;;;;;;87.28;39.58;;;;;;;6.12;47.11;97393.38;4989796;28;20065;-65
2022/01/13 02:09:36;;;;;;;86.70;41.40;;;;;;;6.21;47.04;97395.50;4987841;28;20062;-67
2022/01/13 02:12:06;;;;;;;91.57;42.60;;;;;;;6.47;46.26;97427.94;4988070;28;20081;-66
2022/01/13 02:14:35;;;;;;;96.78;42.42;;;;;;;6.31;46.48;97404.75;4989848;28;20105;-66
2022/01/13 02:17:14;;;;;;;83.85;40.05;;;;;;;6.45;46.29;97424.72;4988301;28;20073;-66
2022/01/13 02:19:45;;;;;;;86.47;40.47;;;;;;;6.18;46.14;97395.94;4989252;28;20455;-65
2022/01/13 02:22:10;;;;;;;83.28;38.95;;;;;;;6.16;46.80;97387.44;4989745;28;20032;-66
2022/01/13 02:24:36;;;;;;;89.07;40.30;;;;;;;6.28;46.35;97408.63;4989875;28;20027;-67
2022/01/13 02:27:04;;;;;;;86.88;38.28;;;;;;;6.05;46.50;97388.16;4989397;28;20074;-67
2022/01/13 02:29:29;;;;;;;100.57;42.80;;;;;;;5.79;46.12;97372.56;4990362;28;20034;-66
2022/01/13 02:31:55;;;;;;;87.68;40.97;;;;;;;5.96;46.88;97421.19;4988202;28;20559;-65
2022/01/13 02:34:21;;;;;;;92.70;41.50;;;;;;;5.94;46.89;97405.56;4989808;28;20026;-66
2022/01/13 02:36:49;;;;;;;90.07;39.88;;;;;;;6.01;47.18;97410.75;4989479;28;20590;-67
2022/01/13 02:39:15;;;;;;;87.38;39.10;;;;;;;5.70;46.48;97370.19;4988974;28;20488;-66
2022/01/13 02:41:40;;;;;;;88.50;39.58;;;;;;;5.94;46.06;97392.34;4989189;28;20034;-67
2022/01/13 02:44:17;;;;;;;88.88;40.58;;;;;;;6.05;46.55;97404.03;4989524;28;20069;-67
2022/01/13 02:47:06;;;;;;;89.15;40.58;;;;;;;5.94;46.59;97387.06;4989539;28;20026;-67
2022/01/13 02:49:29;;;;;;;88.65;40.40;;;;;;;6.04;46.40;97410.34;4988605;28;20026;-66
2022/01/13 02:51:55;;;;;;;90.32;38.92;;;;;;;5.80;46.38;97371.53;4992321;28;20061;-66
2022/01/13 02:54:21;;;;;;;89.50;39.25;;;;;;;4.36;48.72;97407.41;4992207;28;20026;-66
2022/01/13 02:56:46;;;;;;;93.32;39.40;;;;;;;4.11;49.91;97417.84;4991838;28;20416;-66
2022/01/13 02:59:13;;;;;;;87.18;39.78;;;;;;;4.54;50.35;97415.44;4994280;28;20885;-66
2022/01/13 03:01:39;;;;;;;91.25;39.80;;;;;;;4.86;49.28;97415.47;4993413;28;20109;-66
2022/01/13 03:04:07;;;;;;;94.72;41.53;;;;;;;4.74;49.55;97375.81;4992138;28;20365;-66
2022/01/13 03:06:36;;;;;;;95.18;40.97;;;;;;;5.13;49.16;97427.50;4993357;28;20034;-66
2022/01/13 03:09:06;;;;;;;89.03;40.15;;;;;;;5.26;49.17;97425.78;4992654;28;20022;-66
2022/01/13 03:11:37;;;;;;;87.82;37.30;;;;;;;5.33;48.33;97427.38;4991166;28;20026;-66
2022/01/13 03:14:10;;;;;;;89.28;38.45;;;;;;;5.31;48.10;97418.84;4993994;28;20456;-66
2022/01/13 03:16:40;;;;;;;97.28;41.10;;;;;;;5.19;48.11;97410.81;4991394;28;20065;-66
2022/01/13 03:19:06;;;;;;;93.70;40.67;;;;;;;5.20;48.41;97409.78;4992159;28;20069;-66
2022/01/13 03:21:31;;;;;;;86.32;37.53;;;;;;;5.09;48.15;97396.47;4991356;28;20547;-66
2022/01/13 03:23:57;;;;;;;90.22;39.08;;;;;;;5.41;47.88;97434.19;4991280;28;20783;-66
2022/01/13 03:26:23;;;;;;;92.60;41.50;;;;;;;5.39;47.53;97418.59;4990829;28;20428;-67
2022/01/13 03:29:05;;;;;;;92.65;40.97;;;;;;;5.55;48.22;97441.00;4990675;28;20030;-67
2022/01/13 03:31:31;;;;;;;95.22;41.83;;;;;;;5.61;47.51;97442.78;4992268;28;20045;-66
2022/01/13 03:33:57;;;;;;;86.68;38.60;;;;;;;5.59;47.84;97444.03;4992321;28;20042;-68
2022/01/13 03:36:22;;;;;;;90.68;40.38;;;;;;;5.40;47.41;97400.91;4991032;28;20030;-66
2022/01/13 03:38:48;;;;;;;98.05;40.72;;;;;;;5.68;47.52;97430.34;4990983;28;20030;-67
2022/01/13 03:41:14;;;;;;;94.15;39.97;;;;;;;5.62;47.67;97409.25;4989575;28;20054;-66
2022/01/13 03:43:40;;;;;;;118.20;44.53;;;;;;;5.85;46.87;97425.31;4992394;28;20034;-66
2022/01/13 03:46:06;;;;;;;92.60;40.05;;;;;;;5.92;47.39;97425.28;4990669;28;20058;-66
2022/01/13 03:48:32;;;;;;;99.65;41.17;;;;;;;5.91;47.33;97429.75;4992100;28;20092;-66
2022/01/13 03:50:57;;;;;;;91.38;40.95;;;;;;;5.95;47.41;97414.28;4990175;28;20088;-66
2022/01/13 03:53:28;;;;;;;89.70;40.53;;;;;;;6.02;47.15;97415.00;4990784;28;20117;-67
2022/01/13 03:56:22;;;;;;;99.53;40.92;;;;;;;6.01;46.57;97416.03;4990522;28;20605;-67
2022/01/13 03:59:18;;;;;;;94.60;41.97;;;;;;;6.08;46.39;97419.41;4992685;28;20027;-66
2022/01/13 04:01:51;;;;;;;88.05;39.45;;;;;;;6.04;46.85;97422.72;4991580;28;20041;-65
2022/01/13 04:04:16;;;;;;;87.68;39.88;;;;;;;5.98;46.99;97411.19;4991715;28;20037;-65
2022/01/13 04:06:43;;;;;;;89.53;39.70;;;;;;;5.81;46.75;97376.59;4990467;28;20026;-65
2022/01/13 04:09:44;;;;;;;88.88;40.38;;;;;;;6.16;46.62;97416.50;4991386;28;20054;-67
2022/01/13 04:12:12;;;;;;;87.80;39.83;;;;;;;6.08;46.04;97394.84;4990266;28;20529;-65
2022/01/13 04:17:13;;;;;;;88.88;39.03;;;;;;;6.14;46.73;97430.94;4991055;28;20022;-61
2022/01/13 04:19:40;;;;;;;84.05;37.78;;;;;;;5.16;46.13;97249.50;4990778;28;20554;-61
2022/01/13 04:22:07;;;;;;;85.10;38.42;;;;;;;4.52;45.77;97145.22;4991270;28;20034;-61
2022/01/13 04:24:35;;;;;;;75.50;35.88;;;;;;;5.76;45.79;97357.16;4990017;28;20539;-61
2022/01/13 04:27:00;;;;;;;81.38;37.10;;;;;;;6.01;46.31;97402.03;4990656;28;20304;-61
2022/01/13 04:29:41;;;;;;;82.20;36.30;;;;;;;4.21;46.28;97131.09;4991668;28;20699;-61
2022/01/13 04:32:07;;;;;;;81.25;36.25;;;;;;;5.92;46.13;97462.25;4989769;28;20083;-61
2022/01/13 04:34:34;;;;;;;83.63;37.63;;;;;;;3.95;45.54;97100.50;4990880;28;20030;-62
2022/01/13 04:37:00;;;;;;;85.45;38.17;;;;;;;5.85;46.14;97441.16;4991257;28;20067;-63
2022/01/13 04:39:27;;;;;;;87.53;37.58;;;;;;;5.66;45.91;97436.84;4990355;28;20027;-63
2022/01/13 04:41:53;;;;;;;83.28;37.80;;;;;;;3.82;47.11;97176.91;4990393;28;20705;-63
2022/01/13 04:44:21;;;;;;;83.07;37.28;;;;;;;3.37;47.30;97125.09;4992117;28;20058;-63
2022/01/13 04:46:49;;;;;;;84.90;38.15;;;;;;;3.29;47.33;97095.59;4990465;28;20026;-61
2022/01/13 04:49:16;;;;;;;83.65;36.97;;;;;;;5.54;46.72;97428.84;4990305;28;20031;-63
2022/01/13 04:51:42;;;;;;;83.35;36.38;;;;;;;3.35;47.31;97086.88;4990898;28;20030;-61
2022/01/13 04:54:07;;;;;;;85.68;36.42;;;;;;;3.36;47.29;97114.78;4990668;28;20106;-61
2022/01/13 04:59:06;;;;;;;81.78;36.47;;;;;;;5.57;47.12;97454.78;4991220;28;20038;-62
2022/01/13 05:01:32;;;;;;;85.82;35.55;;;;;;;3.54;46.85;97128.06;4990487;28;20030;-62
2022/01/13 05:03:57;;;;;;;93.10;38.35;;;;;;;5.40;46.88;97459.00;4990470;28;20381;-62
2022/01/13 05:06:23;;;;;;;81.28;35.90;;;;;;;4.99;47.17;97381.13;4990605;28;20053;-62
2022/01/13 05:08:49;;;;;;;81.95;37.20;;;;;;;5.53;46.73;97426.38;4990351;28;20038;-61
2022/01/13 05:11:16;;;;;;;77.80;34.70;;;;;;;5.56;47.00;97421.50;4989887;28;20106;-61
2022/01/13 05:13:42;;;;;;;83.32;35.72;;;;;;;3.84;47.10;97143.28;4990564;28;20113;-61
2022/01/13 05:16:15;;;;;;;76.03;34.60;;;;;;;3.45;46.66;97118.78;4983967;28;20463;-61
2022/01/13 05:18:48;;;;;;;82.43;35.47;;;;;;;3.18;46.18;97041.84;4990031;28;20061;-61
2022/01/13 05:23:45;;;;;;;79.72;36.13;;;;;;;4.06;46.91;97235.94;4990292;28;20026;-61
2022/01/13 05:26:10;;;;;;;81.63;36.28;;;;;;;3.54;46.53;97111.47;4990236;28;20389;-62
2022/01/13 05:28:37;;;;;;;82.90;35.80;;;;;;;3.50;46.46;97140.03;4988326;28;20396;-61
2022/01/13 05:31:02;;;;;;;78.78;35.67;;;;;;;3.49;46.83;97140.25;4990743;28;20468;-61
2022/01/13 05:33:28;;;;;;;78.55;34.80;;;;;;;3.48;47.17;97133.34;4990024;28;20077;-61
2022/01/13 05:35:53;;;;;;;73.47;33.35;;;;;;;4.94;46.78;97359.84;4989807;28;20101;-62
2022/01/13 05:38:19;;;;;;;73.40;34.35;;;;;;;5.18;46.32;97377.53;4990216;28;20035;-61
2022/01/13 05:40:44;;;;;;;84.50;37.33;;;;;;;5.19;46.62;97388.91;4988183;28;20076;-61
2022/01/13 05:43:10;;;;;;;74.38;33.65;;;;;;;4.26;46.51;97284.03;4989465;28;20056;-61
2022/01/13 05:45:36;;;;;;;78.18;34.35;;;;;;;4.83;46.59;97344.72;4991115;28;20076;-61
2022/01/13 05:48:02;;;;;;;77.25;34.42;;;;;;;5.46;46.40;97444.94;4989883;28;20027;-61
2022/01/13 05:50:30;;;;;;;71.95;33.40;;;;;;;3.53;46.99;97157.19;4989018;28;20053;-61
2022/01/13 05:52:56;;;;;;;77.22;33.78;;;;;;;4.49;45.85;97316.94;4989400;28;20022;-61
2022/01/13 05:55:21;;;;;;;76.93;34.92;;;;;;;3.38;46.46;97100.44;4989832;28;20027;-62
2022/01/13 05:57:47;;;;;;;70.10;32.05;;;;;;;3.24;46.44;97079.66;4989322;28;20460;-61
2022/01/13 06:00:16;;;;;;;80.25;34.03;;;;;;;4.77;46.51;97371.94;4989085;28;20022;-62
2022/01/13 06:02:42;;;;;;;76.00;33.75;;;;;;;3.74;48.39;97374.59;4989684;28;20026;-61
2022/01/13 06:05:09;;;;;;;80.88;36.28;;;;;;;3.79;49.66;97409.81;4989643;28;20379;-61
2022/01/13 06:07:34;;;;;;;77.78;35.70;;;;;;;2.20;48.39;97068.22;4989771;28;20030;-62
2022/01/13 06:10:00;;;;;;;78.18;34.50;;;;;;;3.67;48.63;97282.44;4989055;28;20480;-61
2022/01/13 06:12:33;;;;;;;83.32;35.25;;;;;;;5.06;48.11;97479.47;4989313;28;20034;-63
2022/01/13 06:14:59;;;;;;;85.95;36.63;;;;;;;4.70;47.98;97401.78;4990867;28;20036;-62
2022/01/13 06:17:25;;;;;;;81.13;34.92;;;;;;;4.93;47.67;97469.81;4989582;28;20096;-62
2022/01/13 06:19:50;;;;;;;82.70;36.13;;;;;;;5.17;47.21;97476.19;4987565;28;20065;-62
2022/01/13 06:22:16;;;;;;;85.22;36.85;;;;;;;5.18;47.63;97480.44;4989663;28;20162;-62
2022/01/13 06:24:41;;;;;;;82.45;36.15;;;;;;;5.12;47.35;97472.56;4989724;28;20037;-62
2022/01/13 06:27:06;;;;;;;75.95;34.97;;;;;;;3.33;46.95;97196.75;4992540;28;20034;-62
2022/01/13 06:29:32;;;;;;;75.63;34.72;;;;;;;4.40;46.95;97408.59;4993444;28;20030;-62
2022/01/13 06:31:59;;;;;;;76.68;33.25;;;;;;;2.96;46.95;97127.28;4993102;28;20030;-62
2022/01/13 06:34:24;;;;;;;76.00;33.17;;;;;;;4.38;46.55;97357.94;4993080;28;20031;-62
2022/01/13 06:36:49;;;;;;;71.57;31.70;;;;;;;2.80;46.91;97162.69;4993040;28;20488;-62
2022/01/13 06:39:15;;;;;;;69.28;32.33;;;;;;;3.25;46.75;97246.94;4992281;28;20479;-62
2022/01/13 06:41:41;;;;;;;70.95;31.70;;;;;;;4.01;47.08;97362.16;4993046;28;20034;-62
2022/01/13 06:44:06;;;;;;;71.35;31.70;;;;;;;2.48;46.84;97109.19;4992303;28;20085;-62
2022/01/13 06:46:32;;;;;;;71.45;32.13;;;;;;;2.14;46.93;97074.25;4994331;28;20109;-62
2022/01/13 06:48:58;;;;;;;75.55;32.58;;;;;;;4.04;46.88;97349.34;4992325;28;20030;-63
2022/01/13 06:51:23;;;;;;;80.38;32.78;;;;;;;4.98;47.09;97478.94;4991249;28;20113;-63
2022/01/13 06:53:49;;;;;;;67.18;31.10;;;;;;;4.47;47.13;97408.59;4992743;28;20158;-65
2022/01/13 06:56:15;;;;;;;75.13;33.47;;;;;;;4.89;46.85;97454.63;4992584;28;20396;-62
2022/01/13 06:58:44;;;;;;;66.28;30.92;;;;;;;3.71;47.00;97252.06;4993673;28;20121;-62
2022/01/13 07:01:09;;;;;;;71.95;31.92;;;;;;;3.97;46.63;97300.38;4985663;28;20138;-62
2022/01/13 07:03:36;;;;;;;71.85;30.65;;;;;;;4.85;48.93;97435.78;4992592;28;20070;-65
2022/01/13 07:06:01;;;;;;;73.72;31.92;;;;;;;4.85;47.88;97488.50;4992977;28;20030;-65
2022/01/13 07:08:27;;;;;;;72.93;32.92;;;;;;;4.85;47.93;97495.63;4992674;28;20029;-65
2022/01/13 07:10:52;;;;;;;68.20;30.55;;;;;;;5.06;47.63;97487.38;4991990;28;20022;-66
2022/01/13 07:13:18;;;;;;;69.85;32.15;;;;;;;4.92;46.97;97441.03;4992008;28;20026;-65
2022/01/13 07:15:45;;;;;;;70.18;30.70;;;;;;;5.36;46.57;97487.63;4993922;28;20373;-66
2022/01/13 07:18:11;;;;;;;71.78;32.33;;;;;;;5.34;46.00;97454.56;4992736;28;20465;-65
2022/01/13 07:20:37;;;;;;;65.90;30.77;;;;;;;5.25;45.81;97451.38;4990748;28;20117;-65
2022/01/13 07:23:02;;;;;;;68.47;31.25;;;;;;;5.22;45.53;97488.75;4992449;28;20100;-65
2022/01/13 07:25:28;;;;;;;75.15;32.83;;;;;;;4.77;45.96;97430.75;4991125;28;20038;-64
2022/01/13 07:27:55;;;;;;;74.78;32.83;;;;;;;5.12;45.93;97457.56;4990476;28;20041;-62
2022/01/13 07:30:21;;;;;;;70.72;32.60;;;;;;;5.39;45.92;97518.88;4992889;28;20026;-65
2022/01/13 07:32:47;;;;;;;72.57;32.25;;;;;;;5.52;45.70;97507.41;4992007;28;20046;-66
2022/01/13 07:35:12;;;;;;;69.93;33.30;;;;;;;5.62;45.36;97513.03;4992216;28;20384;-61
2022/01/13 07:37:39;;;;;;;70.75;31.20;;;;;;;3.96;47.68;97478.63;4991720;28;20030;-63
2022/01/13 07:40:05;;;;;;;71.07;33.15;;;;;;;4.52;47.26;97462.28;4991448;28;20192;-61
2022/01/13 07:42:31;;;;;;;72.93;32.85;;;;;;;4.93;47.00;97504.09;4991943;28;20526;-61
2022/01/13 07:44:57;;;;;;;66.97;30.48;;;;;;;4.05;47.39;97453.72;4993143;28;20018;-62
2022/01/13 07:47:22;;;;;;;69.40;31.00;;;;;;;2.95;51.08;97505.03;4991971;28;20061;-59
2022/01/13 07:49:47;;;;;;;74.80;32.22;;;;;;;3.33;50.97;97468.50;4991210;28;20547;-60
2022/01/13 07:52:13;;;;;;;72.53;31.20;;;;;;;3.83;50.02;97453.09;4992132;28;20031;-62
2022/01/13 07:54:38;;;;;;;68.25;30.42;;;;;;;2.94;50.39;97466.59;4992134;28;20031;-61
2022/01/13 07:57:04;;;;;;;65.90;30.80;;;;;;;2.51;52.84;97468.69;4990933;28;20034;-62
2022/01/13 07:59:29;;;;;;;69.72;30.40;;;;;;;2.76;52.63;97511.00;4991022;28;20041;-63
2022/01/13 08:01:56;;;;;;;69.60;31.60;;;;;;;3.20;52.20;97515.00;4989682;28;20030;-63
2022/01/13 08:04:21;;;;;;;76.78;32.92;;;;;;;3.44;51.28;97532.88;4992877;28;20046;-62
2022/01/13 08:06:47;;;;;;;71.45;31.70;;;;;;;3.21;50.45;97485.06;4989196;28;20085;-63
2022/01/13 08:09:13;;;;;;;69.80;30.60;;;;;;;3.71;50.45;97517.09;4992545;28;20549;-63
2022/01/13 08:11:38;;;;;;;65.28;29.50;;;;;;;2.69;52.56;97531.19;4991142;28;20102;-63
2022/01/13 08:14:04;;;;;;;65.80;29.95;;;;;;;3.31;52.28;97517.06;4992531;28;20022;-62
2022/01/13 08:16:33;;;;;;;61.65;28.65;;;;;;;3.77;50.69;97485.50;4992830;28;20531;-63
2022/01/13 08:21:42;;;;;;;67.18;29.85;;;;;;;4.01;49.23;97523.59;4991359;28;20499;-64
2022/01/13 08:24:08;;;;;;;72.82;30.02;;;;;;;3.33;50.71;97526.38;4990972;28;20031;-63
2022/01/13 08:26:33;;;;;;;60.92;28.92;;;;;;;4.26;49.10;97530.88;4991006;28;20407;-63
2022/01/13 08:28:59;;;;;;;65.57;29.92;;;;;;;4.42;48.52;97478.53;4990202;28;20639;-62
2022/01/13 08:31:24;;;;;;;59.70;29.42;;;;;;;4.64;47.64;97483.53;4992074;28;20105;-65
2022/01/13 08:33:50;;;;;;;59.78;29.77;;;;;;;3.61;49.01;97470.94;4989601;28;20031;-61
2022/01/13 08:36:15;;;;;;;64.90;29.35;;;;;;;3.36;50.79;97528.59;4991114;28;20038;-64
2022/01/13 08:38:40;;;;;;;62.83;29.65;;;;;;;4.08;49.28;97482.25;4990970;28;20581;-62
2022/01/13 08:41:06;;;;;;;58.33;28.45;;;;;;;4.55;48.16;97487.41;4989026;28;20045;-62
2022/01/13 08:43:33;;;;;;;58.78;28.23;;;;;;;5.00;47.76;97514.63;4990329;28;20035;-63
2022/01/13 08:45:58;;;;;;;57.63;28.08;;;;;;;4.17;46.89;97369.59;4989238;28;20544;-63
2022/01/13 08:48:24;;;;;;;65.78;29.00;;;;;;;5.19;46.81;97529.53;4990003;28;20121;-62
2022/01/13 08:50:50;;;;;;;61.67;30.20;;;;;;;5.29;46.77;97515.09;4990225;28;20106;-61
2022/01/13 08:53:16;;;;;;;57.05;28.27;;;;;;;5.31;46.28;97486.66;4989394;28;20018;-64
2022/01/13 08:55:41;;;;;;;63.10;31.60;;;;;;;5.62;46.06;97489.28;4990830;28;20022;-61
2022/01/13 08:58:07;;;;;;;60.53;29.20;;;;;;;5.73;45.05;97493.88;4990313;28;20026;-61
2022/01/13 09:00:36;;;;;;;58.53;29.40;;;;;;;6.18;44.37;97525.41;4989821;28;20468;-61
2022/01/13 09:03:06;;;;;;;57.13;29.20;;;;;;;6.05;44.28;97483.28;4990207;28;20026;-61
2022/01/13 09:05:32;;;;;;;56.70;28.67;;;;;;;6.09;44.78;97526.75;4990872;28;20030;-61
2022/01/13 09:07:58;;;;;;;58.63;30.15;;;;;;;6.16;43.91;97495.78;4990506;28;20030;-63
2022/01/13 09:10:23;;;;;;;53.45;28.60;;;;;;;6.56;43.44;97534.22;4989642;28;20026;-63
2022/01/13 09:12:48;;;;;;;56.00;28.80;;;;;;;5.98;43.73;97413.81;4990306;28;20018;-65
2022/01/13 09:15:19;;;;;;;56.38;30.15;;;;;;;6.10;43.89;97522.25;4991466;28;20068;-63
2022/01/13 09:17:51;;;;;;;71.13;32.42;;;;;;;6.06;43.81;97550.94;4990138;28;20026;-64
2022/01/13 09:20:16;;;;;;;;;;;;;;;6.12;44.35;97536.06;4989993;28;20022;-61
2022/01/13 09:22:43;;;;;;;63.38;31.05;;;;;;;6.04;44.48;97534.50;4989063;28;19964;-63
2022/01/13 09:25:11;;;;;;;56.72;29.15;;;;;;;5.69;44.50;97545.50;4988736;28;20045;-65
2022/01/13 09:27:40;;;;;;;59.80;29.67;;;;;;;4.76;46.52;97488.94;4990176;28;20034;-63
2022/01/13 09:30:07;;;;;;;62.85;30.80;;;;;;;5.26;45.98;97518.16;4987700;28;20069;-63
2022/01/13 09:32:32;;;;;;;61.65;31.55;;;;;;;5.00;46.13;97542.81;4988475;28;20117;-63
2022/01/13 09:34:59;;;;;;;64.63;30.42;;;;;;;5.34;46.27;97531.09;4988764;28;20114;-62
2022/01/13 09:37:24;;;;;;;67.38;33.00;;;;;;;5.38;45.96;97543.66;4990434;28;20065;-63
2022/01/13 09:39:50;;;;;;;67.88;31.55;;;;;;;4.64;46.74;97444.78;4989337;28;20027;-63
2022/01/13 09:42:17;;;;;;;67.57;32.47;;;;;;;5.65;46.55;97549.59;4988683;28;20502;-63
2022/01/13 09:44:42;;;;;;;62.58;30.95;;;;;;;5.67;46.56;97518.47;4989729;28;20027;-63
2022/01/13 09:47:08;;;;;;;70.88;33.47;;;;;;;5.11;46.58;97540.31;4989760;28;20384;-64
2022/01/13 09:49:34;;;;;;;69.72;33.40;;;;;;;3.58;50.39;97517.91;4989382;28;20034;-63
2022/01/13 09:52:00;;;;;;;66.47;34.35;;;;;;;3.68;51.73;97523.56;4989869;28;20022;-62
2022/01/13 09:54:26;;;;;;;72.03;33.35;;;;;;;3.55;50.93;97484.91;4989004;28;20034;-65
2022/01/13 09:56:52;;;;;;;75.75;34.13;;;;;;;3.59;50.83;97499.28;4990066;28;20030;-62
2022/01/13 09:59:17;;;;;;;72.38;33.97;;;;;;;4.15;50.91;97527.03;4989509;28;20105;-64
2022/01/13 10:01:43;;;;;;;78.88;36.35;;;;;;;4.12;49.72;97424.72;4994781;28;20465;-63
2022/01/13 10:04:08;;;;;;;73.47;33.05;;;;;;;5.17;48.37;97505.22;4993858;28;20035;-64
2022/01/13 10:06:44;;;;;;;75.95;33.92;;;;;;;5.22;47.97;97463.16;4994022;28;20109;-62
2022/01/13 10:09:10;;;;;;;74.15;35.03;;;;;;;6.15;46.93;97554.13;4993451;28;20388;-64
2022/01/13 10:11:36;;;;;;;75.47;36.25;;;;;;;6.34;46.68;97555.78;4993647;28;20038;-64
2022/01/13 10:16:56;;;;;;;74.20;34.35;;;;;;;6.23;45.56;97488.56;5003021;28;20427;-64
2022/01/13 10:19:43;;;;;;;75.43;37.30;;;;;;;6.82;45.34;97536.59;4993061;28;20064;-63
2022/01/13 10:22:11;;;;;;;76.20;34.75;;;;;;;6.90;45.23;97536.28;4993540;28;20035;-62
2022/01/13 10:24:39;;;;;;;85.07;37.00;;;;;;;6.78;44.29;97496.53;4993437;28;20030;-64
2022/01/13 10:27:14;;;;;;;71.32;34.97;;;;;;;7.07;44.15;97528.56;4993255;28;20503;-65
2022/01/13 10:29:51;;;;;;;73.47;35.60;;;;;;;7.13;44.58;97524.22;4993642;28;20042;-61
2022/01/13 10:32:20;;;;;;;77.70;36.92;;;;;;;7.25;44.38;97517.13;4992716;28;20113;-61
2022/01/13 10:34:49;;;;;;;71.22;34.83;;;;;;;7.39;44.09;97520.41;4992372;28;20400;-60
2022/01/13 10:37:19;;;;;;;65.57;33.13;;;;;;;7.20;43.66;97522.28;4993857;28;20217;-59
2022/01/13 10:39:51;;;;;;;71.68;35.22;;;;;;;7.17;43.48;97486.50;4992625;28;20743;-60
2022/01/13 10:45:04;;;;;;;66.70;32.10;;;;;;;7.44;43.08;97480.81;4993796;28;19921;-59
2022/01/13 10:47:32;;;;;;;65.97;31.88;;;;;;;6.68;42.99;97356.06;4994702;28;20029;-61
2022/01/13 10:50:07;;;;;;;67.18;32.85;;;;;;;7.40;42.17;97437.28;4991656;28;20034;-61
2022/01/13 10:52:33;;;;;;;64.93;32.47;;;;;;;7.75;42.12;97474.44;4992574;28;20019;-61
2022/01/13 10:55:02;;;;;;;68.30;33.20;;;;;;;7.95;41.99;97497.97;4992981;28;20097;-61
2022/01/13 10:57:29;;;;;;;62.63;31.25;;;;;;;7.70;41.19;97495.50;4993123;28;20018;-59
2022/01/13 10:59:55;;;;;;;65.28;31.65;;;;;;;7.70;41.83;97485.72;4992269;28;20188;-61
2022/01/13 11:02:22;;;;;;;64.75;31.98;;;;;;;7.93;41.52;97497.38;4991346;28;20080;-59
2022/01/13 11:04:48;;;;;;;57.35;31.35;;;;;;;7.97;41.40;97494.03;4992876;28;20030;-60
2022/01/13 11:07:19;;;;;;;56.38;28.92;;;;;;;7.32;40.99;97437.59;4992486;28;20030;-61
2022/01/13 11:09:59;;;;;;;56.75;29.48;;;;;;;8.07;40.57;97486.31;4991859;28;20030;-61
2022/01/13 11:12:31;;;;;;;64.70;29.95;;;;;;;8.08;39.76;97465.91;4990655;28;20496;-61
2022/01/13 11:15:02;;;;;;;55.33;28.27;;;;;;;8.27;39.99;97487.81;4993727;28;20026;-60
2022/01/13 11:17:28;;;;;;;54.47;28.98;;;;;;;7.38;40.12;97415.53;4993861;28;20046;-60
2022/01/13 11:19:56;;;;;;;54.30;27.85;;;;;;;8.31;40.07;97475.72;4991686;28;20022;-60
2022/01/13 11:22:22;;;;;;;58.22;27.45;;;;;;;8.47;39.86;97475.03;4992378;28;20548;-59
2022/01/13 11:24:48;;;;;;;46.25;25.65;;;;;;;8.39;39.53;97450.72;4992472;28;20109;-61
2022/01/13 11:27:18;;;;;;;53.85;26.75;;;;;;;8.51;39.24;97448.84;4992161;28;20101;-61
2022/01/13 11:29:46;;;;;;;47.97;26.73;;;;;;;8.42;39.37;97418.44;4990075;28;20389;-61
2022/01/13 11:32:14;;;;;;;50.85;27.77;;;;;;;8.81;39.04;97449.47;4993306;28;20097;-61
2022/01/13 11:34:41;;;;;;;46.60;25.50;;;;;;;8.78;38.88;97420.75;4990719;28;20026;-61
2022/01/13 11:37:06;;;;;;;46.95;25.50;;;;;;;8.72;37.68;97423.53;4992034;28;20106;-61
2022/01/13 11:39:41;;;;;;;43.72;22.48;;;;;;;8.93;37.51;97424.72;4991652;28;20014;-62
2022/01/13 11:42:09;;;;;;;39.17;21.77;;;;;;;8.79;37.34;97432.16;4991755;28;20092;-63
2022/01/13 11:44:36;;;;;;;41.25;22.98;;;;;;;8.69;36.90;97437.28;4990377;28;20391;-62
2022/01/13 11:47:08;;;;;;;36.20;21.42;;;;;;;8.56;37.30;97419.78;4990299;28;20026;-60